createdAt,value
2022-09-30T00:00:49.637Z,8.0
2022-09-30T00:02:50.564Z,6.5
2022-09-30T00:04:50.406Z,6.5
2022-09-30T00:06:49.697Z,7.1
2022-09-30T00:08:49.747Z,5.8
2022-09-30T00:10:50.553Z,6.8
2022-09-30T00:12:49.541Z,6.4
2022-09-30T00:14:50.381Z,6.4
2022-09-30T00:16:49.620Z,5.8
2022-09-30T00:18:50.403Z,5.6
2022-09-30T00:20:50.433Z,6.1
2022-09-30T00:22:50.345Z,6.1
2022-09-30T00:24:49.578Z,5.3
2022-09-30T00:26:49.690Z,5.5
2022-09-30T00:28:49.564Z,5.6
2022-09-30T00:30:50.454Z,8.0
2022-09-30T00:32:50.488Z,5.3
2022-09-30T00:34:49.818Z,5.3
2022-09-30T00:36:49.996Z,7.5
2022-09-30T00:38:49.905Z,5.2
2022-09-30T00:40:49.813Z,7.7
2022-09-30T00:42:49.641Z,7.7
2022-09-30T00:44:50.435Z,6.7
2022-09-30T00:46:50.086Z,6.5
2022-09-30T00:48:49.682Z,5.8
2022-09-30T00:50:49.631Z,5.8
2022-09-30T00:52:49.585Z,7.4
2022-09-30T00:54:49.574Z,7.3
2022-09-30T00:56:49.722Z,7.4
2022-09-30T00:58:50.513Z,8.6
2022-09-30T01:00:50.442Z,5.8
2022-09-30T01:02:49.686Z,5.8
2022-09-30T01:04:50.200Z,5.4
2022-09-30T01:06:49.672Z,5.3
2022-09-30T01:08:50.490Z,8.0
2022-09-30T01:10:50.431Z,8.0
2022-09-30T01:12:50.408Z,6.0
2022-09-30T01:14:50.279Z,6.0
2022-09-30T01:16:49.616Z,8.2
2022-09-30T01:18:50.366Z,8.2
2022-09-30T01:20:50.269Z,13.7
2022-09-30T01:22:50.068Z,13.7
2022-09-30T01:24:49.902Z,12.8
2022-09-30T01:26:50.216Z,10.8
2022-09-30T01:28:50.233Z,10.8
2022-09-30T01:30:50.401Z,14.3
2022-09-30T01:32:49.662Z,10.7
2022-09-30T01:34:49.852Z,13.3
2022-09-30T01:36:49.887Z,11.0
2022-09-30T01:38:49.764Z,11.0
2022-09-30T01:40:49.766Z,10.3
2022-09-30T01:42:49.729Z,10.9
2022-09-30T01:44:49.632Z,12.7
2022-09-30T01:46:49.760Z,11.9
2022-09-30T01:48:50.093Z,11.9
2022-09-30T01:50:50.030Z,11.5
2022-09-30T01:52:49.739Z,12.0
2022-09-30T01:54:49.562Z,13.3
2022-09-30T01:56:49.840Z,14.5
2022-09-30T01:58:49.839Z,14.5
2022-09-30T02:00:49.678Z,11.8
2022-09-30T02:02:49.987Z,11.0
2022-09-30T02:04:50.522Z,9.7
2022-09-30T02:06:49.757Z,7.9
2022-09-30T02:08:49.879Z,7.9
2022-09-30T02:10:49.971Z,7.0
2022-09-30T02:12:49.930Z,7.1
2022-09-30T02:14:50.150Z,8.3
2022-09-30T02:16:49.619Z,9.0
2022-09-30T02:18:49.618Z,9.0
2022-09-30T02:20:49.592Z,7.5
2022-09-30T02:22:50.572Z,9.4
2022-09-30T02:24:50.395Z,8.8
2022-09-30T02:26:49.807Z,8.8
2022-09-30T02:28:49.701Z,8.8
2022-09-30T02:30:49.698Z,8.8
2022-09-30T02:32:49.639Z,8.7
2022-09-30T02:34:50.243Z,7.9
2022-09-30T02:36:49.530Z,8.7
2022-09-30T02:38:50.461Z,8.7
2022-09-30T02:40:49.538Z,9.1
2022-09-30T02:42:49.635Z,8.8
2022-09-30T02:44:50.523Z,9.6
2022-09-30T02:46:49.904Z,10.2
2022-09-30T02:48:50.367Z,10.2
2022-09-30T02:50:50.235Z,12.6
2022-09-30T02:52:50.354Z,11.3
2022-09-30T02:54:50.259Z,20.3
2022-09-30T02:56:49.617Z,20.3
2022-09-30T02:58:50.503Z,24.3
2022-09-30T03:00:50.615Z,19.3
2022-09-30T03:02:49.959Z,35.0
2022-09-30T03:04:50.445Z,35.0
2022-09-30T03:06:49.744Z,19.9
2022-09-30T03:08:49.726Z,18.0
2022-09-30T03:10:49.650Z,19.0
2022-09-30T03:12:49.719Z,19.0
2022-09-30T03:14:49.704Z,27.0
2022-09-30T03:16:49.858Z,27.0
2022-09-30T03:18:49.784Z,24.1
2022-09-30T03:20:49.751Z,18.5
2022-09-30T03:22:49.626Z,18.5
2022-09-30T03:24:50.492Z,25.1
2022-09-30T03:26:50.506Z,25.1
2022-09-30T03:28:50.395Z,15.0
2022-09-30T03:30:50.198Z,22.0
2022-09-30T03:32:50.326Z,22.0
2022-09-30T03:34:49.739Z,16.5
2022-09-30T03:36:49.971Z,22.7
2022-09-30T03:38:49.764Z,20.6
2022-09-30T03:40:49.859Z,28.5
2022-09-30T03:42:49.788Z,22.6
2022-09-30T03:44:50.029Z,17.7
2022-09-30T03:46:50.490Z,17.7
2022-09-30T03:48:50.082Z,20.7
2022-09-30T03:50:50.127Z,16.2
2022-09-30T03:52:50.277Z,16.2
2022-09-30T03:54:50.244Z,14.7
2022-09-30T03:56:50.546Z,17.3
2022-09-30T03:58:50.440Z,16.6
2022-09-30T04:00:50.422Z,16.8
2022-09-30T04:02:49.755Z,15.1
2022-09-30T04:04:50.317Z,14.0
2022-09-30T04:06:50.527Z,14.0
2022-09-30T04:08:49.576Z,18.2
2022-09-30T04:10:49.653Z,19.7
2022-09-30T04:12:49.570Z,19.1
2022-09-30T04:14:50.524Z,19.1
2022-09-30T04:16:53.747Z,18.6
2022-09-30T04:18:50.261Z,21.1
2022-09-30T04:20:50.035Z,18.2
2022-09-30T04:22:50.011Z,18.2
2022-09-30T04:24:49.865Z,14.0
2022-09-30T04:26:50.105Z,17.7
2022-09-30T04:28:49.947Z,12.2
2022-09-30T04:30:49.800Z,20.9
2022-09-30T04:32:49.635Z,20.9
2022-09-30T04:34:50.023Z,20.9
2022-09-30T04:36:50.317Z,25.0
2022-09-30T04:38:50.466Z,25.0
2022-09-30T04:40:50.170Z,28.4
2022-09-30T04:42:50.174Z,39.3
2022-09-30T04:44:50.177Z,25.5
2022-09-30T04:46:50.378Z,25.3
2022-09-30T04:48:50.358Z,42.7
2022-09-30T04:50:50.361Z,42.7
2022-09-30T04:52:50.311Z,22.0
2022-09-30T04:54:50.201Z,23.8
2022-09-30T04:56:50.401Z,37.0
2022-09-30T04:58:50.324Z,12.9
2022-09-30T05:00:50.393Z,12.9
2022-09-30T05:02:49.793Z,23.3
2022-09-30T05:04:50.137Z,18.0
2022-09-30T05:06:50.494Z,22.4
2022-09-30T05:08:50.417Z,29.9
2022-09-30T05:10:49.675Z,29.9
2022-09-30T05:12:49.655Z,11.9
2022-09-30T05:14:49.603Z,26.8
2022-09-30T05:16:49.935Z,18.4
2022-09-30T05:18:49.884Z,18.4
2022-09-30T05:20:50.013Z,14.9
2022-09-30T05:22:49.786Z,14.9
2022-09-30T05:24:49.851Z,15.2
2022-09-30T05:26:50.381Z,17.8
2022-09-30T05:28:50.548Z,17.8
2022-09-30T05:30:50.531Z,23.0
2022-09-30T05:32:50.511Z,16.9
2022-09-30T05:34:50.063Z,16.4
2022-09-30T05:36:49.743Z,28.1
2022-09-30T05:38:49.597Z,18.6
2022-09-30T05:40:49.651Z,18.6
2022-09-30T05:42:50.504Z,19.7
2022-09-30T05:44:50.484Z,18.2
2022-09-30T05:46:49.594Z,18.2
2022-09-30T05:48:49.898Z,25.7
2022-09-30T05:50:49.733Z,25.7
2022-09-30T05:52:49.835Z,25.7
2022-09-30T05:54:49.908Z,25.4
2022-09-30T05:56:50.054Z,25.4
2022-09-30T05:58:49.847Z,25.0
2022-09-30T06:00:49.850Z,25.0
2022-09-30T06:02:50.092Z,13.3
2022-09-30T06:04:49.730Z,19.1
2022-09-30T06:06:49.931Z,15.6
2022-09-30T06:08:49.883Z,17.7
2022-09-30T06:10:49.728Z,17.7
2022-09-30T06:12:50.029Z,13.5
2022-09-30T06:14:49.887Z,10.9
2022-09-30T06:16:50.179Z,9.7
2022-09-30T06:18:49.634Z,9.7
2022-09-30T06:20:49.750Z,16.0
2022-09-30T06:22:49.784Z,10.9
2022-09-30T06:24:52.790Z,12.2
2022-09-30T06:26:49.891Z,15.9
2022-09-30T06:28:49.837Z,15.9
2022-09-30T06:30:49.961Z,8.2
2022-09-30T06:32:49.965Z,8.8
2022-09-30T06:34:49.771Z,5.8
2022-09-30T06:36:49.978Z,5.6
2022-09-30T06:38:50.133Z,5.6
2022-09-30T06:40:50.301Z,5.3
2022-09-30T06:42:50.348Z,8.9
2022-09-30T06:44:53.015Z,8.9
2022-09-30T06:46:53.468Z,6.3
2022-09-30T06:48:50.432Z,6.3
2022-09-30T06:50:58.690Z,4.4
2022-09-30T06:52:50.005Z,6.7
2022-09-30T06:54:50.016Z,7.1
2022-09-30T06:56:50.472Z,5.1
2022-09-30T06:58:50.346Z,5.1
2022-09-30T07:00:50.344Z,4.7
2022-09-30T07:02:49.862Z,5.4
2022-09-30T07:04:50.495Z,4.4
2022-09-30T07:06:49.631Z,4.4
2022-09-30T07:08:50.529Z,6.2
2022-09-30T07:10:50.338Z,8.0
2022-09-30T07:12:50.231Z,4.9
2022-09-30T07:14:50.327Z,5.1
2022-09-30T07:16:49.624Z,5.1
2022-09-30T07:18:49.982Z,5.5
2022-09-30T07:20:49.892Z,5.2
2022-09-30T07:22:49.949Z,5.7
2022-09-30T07:24:50.148Z,5.5
2022-09-30T07:26:50.437Z,5.5
2022-09-30T07:28:50.384Z,5.8
2022-09-30T07:30:50.427Z,4.4
2022-09-30T07:32:50.360Z,5.1
2022-09-30T07:34:49.866Z,5.2
2022-09-30T07:36:49.981Z,5.2
2022-09-30T07:38:49.891Z,9.7
2022-09-30T07:40:50.074Z,7.2
2022-09-30T07:42:50.239Z,6.2
2022-09-30T07:44:50.104Z,6.2
2022-09-30T07:46:50.436Z,7.2
2022-09-30T07:48:50.463Z,5.1
2022-09-30T07:50:50.394Z,5.8
2022-09-30T07:52:50.294Z,9.0
2022-09-30T07:54:50.670Z,9.0
2022-09-30T07:57:10.003Z,8.2
2022-09-30T07:58:50.062Z,8.2
2022-09-30T08:00:49.981Z,8.2
2022-09-30T08:02:50.232Z,4.5
2022-09-30T08:04:49.581Z,4.5
2022-09-30T08:06:50.216Z,4.5
2022-09-30T08:08:50.374Z,5.2
2022-09-30T08:10:50.339Z,5.1
2022-09-30T08:12:52.402Z,5.1
2022-09-30T08:14:49.829Z,4.8
2022-09-30T08:16:50.145Z,4.8
2022-09-30T08:18:50.562Z,5.4
2022-09-30T08:20:50.386Z,5.4
2022-09-30T08:22:50.333Z,5.3
2022-09-30T08:24:50.267Z,5.3
2022-09-30T08:26:49.668Z,15.5
2022-09-30T08:28:49.995Z,5.4
2022-09-30T08:30:50.124Z,5.0
2022-09-30T08:32:50.018Z,5.0
2022-09-30T08:34:50.516Z,5.0
2022-09-30T08:36:49.990Z,6.2
2022-09-30T08:38:49.987Z,6.8
2022-09-30T08:40:49.935Z,5.8
2022-09-30T08:42:52.870Z,5.8
2022-09-30T08:44:50.002Z,10.6
2022-09-30T08:46:52.717Z,5.1
2022-09-30T08:48:50.424Z,6.5
2022-09-30T08:50:49.573Z,6.5
2022-09-30T08:52:50.577Z,9.2
2022-09-30T08:54:50.241Z,5.1
2022-09-30T08:56:49.722Z,6.7
2022-09-30T08:58:49.747Z,6.7
2022-09-30T09:00:49.787Z,5.1
2022-09-30T09:02:50.272Z,6.1
2022-09-30T09:04:50.016Z,5.2
2022-09-30T09:06:50.296Z,7.9
2022-09-30T09:08:50.238Z,9.9
2022-09-30T09:10:50.471Z,9.9
2022-09-30T09:12:50.297Z,9.0
2022-09-30T09:14:50.212Z,6.1
2022-09-30T09:16:50.514Z,8.1
2022-09-30T09:18:49.559Z,19.7
2022-09-30T09:20:49.686Z,19.7
2022-09-30T09:22:49.571Z,5.6
2022-09-30T09:24:50.425Z,21.8
2022-09-30T09:26:49.938Z,22.2
2022-09-30T09:28:51.665Z,22.2
2022-09-30T09:30:49.713Z,6.9
2022-09-30T09:32:50.484Z,6.9
2022-09-30T09:34:49.900Z,6.7
2022-09-30T09:36:50.364Z,6.6
2022-09-30T09:38:50.448Z,6.6
2022-09-30T09:40:50.457Z,7.0
2022-09-30T09:42:50.187Z,7.0
2022-09-30T09:44:50.296Z,8.2
2022-09-30T09:46:49.915Z,8.4
2022-09-30T09:48:49.961Z,8.8
2022-09-30T09:50:50.046Z,8.7
2022-09-30T09:52:49.803Z,8.7
2022-09-30T09:54:49.949Z,9.2
2022-09-30T09:56:50.265Z,9.2
2022-09-30T10:00:50.451Z,8.4
2022-09-30T10:02:50.519Z,9.2
2022-09-30T10:04:49.823Z,19.8
2022-09-30T10:06:50.035Z,8.5
2022-09-30T10:08:49.782Z,8.5
2022-09-30T10:10:49.790Z,8.8
2022-09-30T10:12:49.549Z,8.6
2022-09-30T10:14:50.416Z,8.3
2022-09-30T10:16:49.652Z,9.2
2022-09-30T10:18:50.481Z,9.2
2022-09-30T10:20:49.994Z,12.0
2022-09-30T10:22:50.213Z,8.9
2022-09-30T10:24:50.174Z,8.6
2022-09-30T10:26:50.262Z,8.1
2022-09-30T10:28:50.333Z,8.1
2022-09-30T10:30:50.412Z,9.0
2022-09-30T10:32:50.540Z,10.2
2022-09-30T10:34:50.341Z,8.4
2022-09-30T10:36:49.830Z,9.3
2022-09-30T10:38:49.688Z,9.3
2022-09-30T10:40:49.748Z,11.3
2022-09-30T10:42:49.678Z,10.3
2022-09-30T10:44:50.512Z,7.7
2022-09-30T10:46:49.773Z,7.5
2022-09-30T10:48:50.347Z,7.5
2022-09-30T10:50:50.394Z,7.4
2022-09-30T10:52:50.444Z,6.8
2022-09-30T10:54:50.282Z,6.8
2022-09-30T10:56:51.229Z,7.2
2022-09-30T10:58:49.735Z,7.2
2022-09-30T11:00:50.111Z,8.3
2022-09-30T11:02:51.820Z,6.9
2022-09-30T11:04:50.065Z,6.9
2022-09-30T11:06:50.453Z,7.3
2022-09-30T11:08:50.300Z,7.3
2022-09-30T11:10:50.183Z,14.2
2022-09-30T11:12:50.054Z,10.6
2022-09-30T11:14:50.227Z,16.4
2022-09-30T11:16:50.589Z,16.4
2022-09-30T11:18:49.823Z,7.0
2022-09-30T11:20:49.626Z,7.7
2022-09-30T11:22:49.591Z,7.0
2022-09-30T11:24:50.442Z,7.1
2022-09-30T11:26:49.798Z,7.1
2022-09-30T11:28:49.685Z,6.6
2022-09-30T11:30:49.584Z,6.5
2022-09-30T11:32:49.643Z,6.7
2022-09-30T11:34:50.020Z,8.6
2022-09-30T11:36:50.227Z,8.6
2022-09-30T11:38:50.247Z,5.8
2022-09-30T11:40:50.130Z,6.1
2022-09-30T11:42:50.147Z,7.0
2022-09-30T11:44:50.153Z,7.0
2022-09-30T11:46:50.379Z,5.7
2022-09-30T11:48:50.502Z,5.1
2022-09-30T11:50:49.561Z,5.0
2022-09-30T11:52:50.394Z,4.5
2022-09-30T11:54:50.395Z,4.5
2022-09-30T11:56:49.583Z,4.7
2022-09-30T11:58:49.688Z,4.7
2022-09-30T12:00:49.726Z,4.4
2022-09-30T12:02:49.790Z,4.1
2022-09-30T12:04:50.310Z,4.1
2022-09-30T12:06:50.494Z,3.6
2022-09-30T12:08:49.616Z,3.4
2022-09-30T12:10:49.725Z,3.4
2022-09-30T12:12:49.704Z,4.8
2022-09-30T12:14:49.852Z,3.1
2022-09-30T12:16:50.325Z,3.1
2022-09-30T12:18:50.339Z,3.6
2022-09-30T12:20:50.254Z,4.1
2022-09-30T12:22:50.096Z,5.4
2022-09-30T12:24:50.100Z,5.4
2022-09-30T12:26:50.550Z,4.8
2022-09-30T12:28:49.642Z,4.3
2022-09-30T12:30:49.834Z,5.5
2022-09-30T12:32:49.876Z,5.5
2022-09-30T12:34:50.497Z,5.3
2022-09-30T12:36:50.553Z,5.0
2022-09-30T12:38:49.592Z,3.6
2022-09-30T12:40:52.679Z,4.1
2022-09-30T12:42:50.135Z,4.1
2022-09-30T12:44:50.055Z,4.1
2022-09-30T12:46:50.169Z,4.5
2022-09-30T12:48:50.045Z,4.9
2022-09-30T12:50:50.109Z,4.4
2022-09-30T12:52:49.970Z,4.4
2022-09-30T12:54:50.212Z,3.7
2022-09-30T12:56:50.496Z,3.5
2022-09-30T12:58:49.632Z,3.6
2022-09-30T13:00:49.738Z,3.6
2022-09-30T13:02:50.005Z,4.1
2022-09-30T13:04:50.374Z,3.7
2022-09-30T13:06:49.727Z,3.9
2022-09-30T13:08:49.673Z,3.5
2022-09-30T13:10:49.594Z,3.5
2022-09-30T13:12:50.499Z,4.0
2022-09-30T13:14:50.511Z,4.6
2022-09-30T13:16:49.599Z,4.8
2022-09-30T13:18:49.912Z,4.8
2022-09-30T13:20:49.888Z,4.2
2022-09-30T13:22:49.722Z,3.9
2022-09-30T13:24:49.619Z,3.1
2022-09-30T13:26:49.937Z,4.0
2022-09-30T13:28:49.944Z,4.0
2022-09-30T13:30:49.924Z,3.4
2022-09-30T13:32:50.063Z,3.4
2022-09-30T13:34:50.490Z,3.7
2022-09-30T13:36:49.816Z,3.6
2022-09-30T13:38:49.859Z,3.6
2022-09-30T13:41:01.590Z,3.6
2022-09-30T13:42:50.257Z,3.9
2022-09-30T13:44:53.032Z,4.3
2022-09-30T13:46:49.608Z,4.6
2022-09-30T13:48:49.649Z,4.6
2022-09-30T13:50:49.786Z,4.1
2022-09-30T13:52:49.923Z,4.5
2022-09-30T13:54:49.727Z,3.9
2022-09-30T13:56:49.865Z,4.2
2022-09-30T13:58:49.868Z,4.4
2022-09-30T14:00:49.919Z,4.4
2022-09-30T14:02:50.312Z,4.3
2022-09-30T14:04:50.165Z,3.9
2022-09-30T14:06:50.342Z,4.4
2022-09-30T14:08:50.350Z,4.4
2022-09-30T14:10:49.719Z,4.0
2022-09-30T14:12:50.511Z,3.2
2022-09-30T14:14:50.370Z,3.9
2022-09-30T14:16:49.753Z,3.3
2022-09-30T14:18:49.682Z,3.3
2022-09-30T14:20:49.662Z,3.1
2022-09-30T14:22:49.807Z,3.3
2022-09-30T14:24:49.686Z,3.6
2022-09-30T14:26:49.985Z,3.7
2022-09-30T14:28:50.315Z,3.7
2022-09-30T14:30:50.655Z,4.1
2022-09-30T14:32:50.552Z,4.0
2022-09-30T14:34:49.955Z,3.0
2022-09-30T14:36:50.225Z,3.0
2022-09-30T14:38:50.119Z,3.0
2022-09-30T14:40:50.250Z,2.6
2022-09-30T14:42:50.318Z,4.0
2022-09-30T14:44:50.404Z,2.9
2022-09-30T14:46:50.549Z,3.6
2022-09-30T14:48:50.541Z,3.6
2022-09-30T14:50:50.539Z,3.6
2022-09-30T14:52:49.658Z,2.7
2022-09-30T14:54:49.797Z,3.2
2022-09-30T14:56:50.295Z,3.2
2022-09-30T14:58:50.184Z,3.0
2022-09-30T15:00:50.221Z,2.9
2022-09-30T15:02:49.608Z,3.3
2022-09-30T15:04:50.600Z,3.3
2022-09-30T15:06:50.271Z,4.6
2022-09-30T15:08:50.421Z,3.3
2022-09-30T15:10:50.318Z,3.4
2022-09-30T15:12:49.654Z,3.4
2022-09-30T15:14:49.589Z,3.4
2022-09-30T15:16:49.670Z,3.1
2022-09-30T15:18:49.704Z,2.7
2022-09-30T15:20:49.846Z,2.8
2022-09-30T15:22:49.883Z,2.9
2022-09-30T15:24:49.914Z,2.9
2022-09-30T15:26:50.200Z,3.1
2022-09-30T15:28:50.322Z,2.8
2022-09-30T15:30:50.573Z,2.7
2022-09-30T15:32:51.331Z,2.7
2022-09-30T15:34:49.655Z,4.0
2022-09-30T15:36:50.019Z,3.6
2022-09-30T15:38:50.417Z,2.3
2022-09-30T15:40:50.371Z,2.2
2022-09-30T15:42:50.338Z,2.2
2022-09-30T15:44:50.242Z,1.8
2022-09-30T15:46:49.656Z,1.8
2022-09-30T15:48:49.667Z,1.8
2022-09-30T15:50:49.782Z,2.0
2022-09-30T15:52:49.837Z,2.0
2022-09-30T15:54:49.827Z,1.8
2022-09-30T15:56:50.268Z,1.8
2022-09-30T15:58:50.349Z,2.1
2022-09-30T16:00:50.412Z,2.4
2022-09-30T16:02:49.631Z,2.4
2022-09-30T16:04:50.557Z,2.0
2022-09-30T16:06:49.793Z,2.0
2022-09-30T16:08:49.714Z,1.8
2022-09-30T16:10:49.822Z,1.9
2022-09-30T16:12:50.039Z,1.9
2022-09-30T16:14:49.583Z,4.7
2022-09-30T16:16:50.102Z,2.5
2022-09-30T16:18:49.787Z,2.6
2022-09-30T16:20:49.833Z,2.6
2022-09-30T16:22:50.027Z,4.7
2022-09-30T16:24:50.199Z,5.8
2022-09-30T16:26:50.298Z,3.3
2022-09-30T16:28:49.813Z,2.3
2022-09-30T16:30:49.848Z,2.3
2022-09-30T16:32:49.748Z,2.3
2022-09-30T16:34:50.278Z,3.7
2022-09-30T16:36:49.803Z,4.7
2022-09-30T16:38:49.786Z,5.5
2022-09-30T16:40:50.030Z,5.9
2022-09-30T16:42:50.094Z,4.7
2022-09-30T16:44:50.248Z,4.7
2022-09-30T16:46:50.568Z,3.0
2022-09-30T16:48:50.553Z,2.9
2022-09-30T16:50:50.553Z,3.2
2022-09-30T16:52:50.401Z,3.2
2022-09-30T16:54:50.453Z,4.1
2022-09-30T16:56:49.603Z,3.6
2022-09-30T16:58:49.661Z,2.8
2022-09-30T17:00:49.803Z,2.8
2022-09-30T17:02:50.390Z,4.2
2022-09-30T17:04:49.952Z,3.7
2022-09-30T17:06:50.246Z,4.1
2022-09-30T17:08:50.337Z,3.1
2022-09-30T17:10:50.273Z,3.1
2022-09-30T17:12:50.539Z,2.9
2022-09-30T17:14:49.697Z,3.0
2022-09-30T17:16:49.948Z,3.0
2022-09-30T17:18:50.191Z,5.8
2022-09-30T17:20:50.446Z,5.8
2022-09-30T17:22:50.428Z,5.8
2022-09-30T17:24:50.541Z,3.4
2022-09-30T17:26:50.041Z,3.9
2022-09-30T17:28:50.076Z,6.3
2022-09-30T17:30:49.980Z,6.3
2022-09-30T17:32:50.074Z,3.8
2022-09-30T17:34:50.588Z,3.8
2022-09-30T17:36:49.631Z,7.5
2022-09-30T17:38:49.613Z,7.5
2022-09-30T17:40:49.785Z,3.6
2022-09-30T17:42:49.835Z,3.5
2022-09-30T17:44:50.006Z,5.5
2022-09-30T17:46:50.228Z,3.2
2022-09-30T17:48:50.278Z,3.2
2022-09-30T17:50:50.524Z,6.3
2022-09-30T17:52:50.538Z,6.3
2022-09-30T17:54:52.141Z,4.7
2022-09-30T17:56:50.025Z,3.9
2022-09-30T17:58:50.189Z,3.9
2022-09-30T18:00:49.771Z,4.1
2022-09-30T18:02:50.137Z,3.9
2022-09-30T18:04:50.544Z,6.2
2022-09-30T18:06:49.778Z,6.2
2022-09-30T18:08:49.721Z,3.7
2022-09-30T18:10:49.786Z,5.7
2022-09-30T18:12:49.762Z,6.7
2022-09-30T18:14:49.970Z,5.0
2022-09-30T18:16:50.483Z,5.0
2022-09-30T18:18:50.012Z,6.0
2022-09-30T18:20:50.161Z,6.0
2022-09-30T18:22:50.278Z,4.1
2022-09-30T18:24:50.223Z,4.9
2022-09-30T18:26:49.655Z,4.9
2022-09-30T18:28:49.792Z,4.5
2022-09-30T18:30:49.869Z,5.8
2022-09-30T18:32:49.944Z,4.5
2022-09-30T18:34:49.593Z,7.2
2022-09-30T18:36:49.957Z,4.6
2022-09-30T18:38:50.139Z,4.6
2022-09-30T18:40:50.220Z,4.4
2022-09-30T18:42:50.221Z,4.2
2022-09-30T18:44:50.470Z,5.3
2022-09-30T18:46:49.654Z,4.3
2022-09-30T18:48:49.807Z,4.3
2022-09-30T18:50:49.762Z,5.3
2022-09-30T18:52:50.023Z,5.9
2022-09-30T18:54:49.951Z,5.9
2022-09-30T18:56:50.226Z,7.8
2022-09-30T18:58:50.193Z,7.8
2022-09-30T19:00:50.320Z,5.0
2022-09-30T19:02:49.623Z,9.4
2022-09-30T19:04:50.419Z,9.4
2022-09-30T19:06:50.564Z,4.8
2022-09-30T19:08:49.867Z,6.2
2022-09-30T19:10:50.072Z,5.2
2022-09-30T19:12:50.155Z,4.6
2022-09-30T19:14:50.299Z,4.6
2022-09-30T19:16:49.825Z,4.9
2022-09-30T19:18:50.262Z,4.9
2022-09-30T19:20:50.258Z,4.8
2022-09-30T19:22:49.677Z,4.7
2022-09-30T19:24:49.702Z,4.7
2022-09-30T19:26:49.993Z,5.0
2022-09-30T19:28:50.096Z,5.0
2022-09-30T19:30:50.529Z,4.8
2022-09-30T19:32:50.534Z,4.6
2022-09-30T19:34:59.501Z,5.4
2022-09-30T19:36:51.797Z,5.4
2022-09-30T19:38:50.585Z,4.9
2022-09-30T19:40:50.127Z,4.9
2022-09-30T19:42:50.263Z,5.1
2022-09-30T19:44:50.168Z,5.1
2022-09-30T19:46:50.430Z,5.6
2022-09-30T19:48:49.899Z,6.2
2022-09-30T19:50:50.015Z,5.5
2022-09-30T19:52:55.431Z,5.7
2022-09-30T19:54:49.726Z,5.7
2022-09-30T19:56:50.216Z,8.1
2022-09-30T19:58:50.285Z,6.3
2022-09-30T20:00:50.523Z,6.0
2022-09-30T20:02:49.746Z,6.0
2022-09-30T20:04:50.409Z,8.1
2022-09-30T20:06:50.532Z,7.9
2022-09-30T20:08:49.640Z,6.1
2022-09-30T20:10:50.506Z,6.5
2022-09-30T20:12:49.663Z,6.5
2022-09-30T20:14:49.651Z,6.3
2022-09-30T20:16:50.073Z,6.3
2022-09-30T20:18:50.089Z,6.9
2022-09-30T20:20:50.284Z,9.7
2022-09-30T20:22:50.395Z,9.7
2022-09-30T20:24:50.404Z,8.9
2022-09-30T20:26:49.771Z,8.9
2022-09-30T20:28:49.952Z,8.9
2022-09-30T20:30:49.856Z,8.9
2022-09-30T20:32:50.177Z,8.9
2022-09-30T20:34:49.882Z,10.7
2022-09-30T20:36:50.026Z,7.6
2022-09-30T20:38:50.206Z,7.9
2022-09-30T20:40:50.236Z,8.7
2022-09-30T20:42:50.366Z,8.7
2022-09-30T20:44:50.182Z,8.8
2022-09-30T20:46:49.611Z,8.4
2022-09-30T20:48:50.584Z,7.8
2022-09-30T20:50:49.897Z,8.2
2022-09-30T20:52:49.934Z,8.2
2022-09-30T20:54:50.183Z,8.7
2022-09-30T20:57:06.618Z,8.1
2022-09-30T20:58:50.452Z,8.4
2022-09-30T21:00:49.597Z,8.4
2022-09-30T21:02:50.013Z,9.5
2022-09-30T21:04:52.578Z,9.6
2022-09-30T21:06:49.783Z,11.2
2022-09-30T21:08:49.764Z,9.3
2022-09-30T21:10:49.693Z,8.9
2022-09-30T21:12:49.630Z,8.9
2022-09-30T21:14:49.575Z,11.0
2022-09-30T21:16:49.882Z,10.2
2022-09-30T21:18:50.244Z,9.7
2022-09-30T21:20:50.289Z,9.2
2022-09-30T21:22:50.386Z,9.2
2022-09-30T21:24:50.282Z,10.3
2022-09-30T21:26:49.686Z,11.6
2022-09-30T21:28:49.693Z,10.8
2022-09-30T21:30:49.698Z,10.8
2022-09-30T21:32:49.693Z,10.2
2022-09-30T21:34:50.394Z,9.9
2022-09-30T21:36:49.665Z,9.1
2022-09-30T21:38:49.728Z,10.2
2022-09-30T21:40:49.896Z,10.2
2022-09-30T21:42:49.928Z,10.5
2022-09-30T21:44:50.116Z,11.3
2022-09-30T21:46:50.367Z,12.7
2022-09-30T21:48:50.475Z,12.7
2022-09-30T21:50:49.626Z,10.1
2022-09-30T21:52:49.785Z,10.3
2022-09-30T21:54:49.738Z,12.5
2022-09-30T21:56:50.025Z,10.6
2022-09-30T21:58:50.016Z,10.6
2022-09-30T22:00:50.227Z,9.5
2022-09-30T22:02:50.544Z,9.5
2022-09-30T22:04:50.405Z,11.1
2022-09-30T22:06:49.701Z,11.1
2022-09-30T22:08:49.674Z,12.1
2022-09-30T22:10:49.656Z,12.9
2022-09-30T22:12:49.651Z,13.0
2022-09-30T22:14:49.680Z,12.7
2022-09-30T22:16:49.957Z,11.0
2022-09-30T22:18:50.476Z,13.1
2022-09-30T22:20:49.640Z,13.1
2022-09-30T22:22:49.763Z,10.7
2022-09-30T22:24:49.883Z,15.3
2022-09-30T22:26:50.091Z,11.2
2022-09-30T22:28:50.263Z,11.2
2022-09-30T22:30:50.139Z,11.1
2022-09-30T22:32:50.093Z,11.9
2022-09-30T22:34:49.602Z,14.8
2022-09-30T22:36:49.957Z,14.8
2022-09-30T22:38:49.929Z,13.1
2022-09-30T22:40:49.949Z,13.1
2022-09-30T22:42:49.985Z,11.6
2022-09-30T22:44:50.146Z,9.6
2022-09-30T22:46:50.422Z,9.6
2022-09-30T22:48:50.450Z,10.3
2022-09-30T22:50:50.385Z,10.3
2022-09-30T22:52:50.289Z,9.3
2022-09-30T22:54:50.219Z,10.7
2022-09-30T22:56:49.712Z,10.7
2022-09-30T22:58:49.744Z,10.9
2022-09-30T23:00:49.776Z,11.1
2022-09-30T23:02:50.159Z,9.3
2022-09-30T23:04:50.537Z,12.3
2022-09-30T23:06:49.765Z,12.3
2022-09-30T23:08:49.718Z,12.6
2022-09-30T23:10:49.901Z,11.4
2022-09-30T23:12:50.031Z,11.4
2022-09-30T23:14:50.308Z,9.5
2022-09-30T23:16:49.738Z,9.5
2022-09-30T23:18:50.179Z,11.8
2022-09-30T23:20:50.389Z,11.8
2022-09-30T23:22:50.426Z,11.3
2022-09-30T23:24:49.569Z,11.3
2022-09-30T23:26:49.609Z,10.0
2022-09-30T23:28:49.897Z,12.6
2022-09-30T23:30:49.786Z,12.0
2022-09-30T23:32:49.818Z,13.3
2022-09-30T23:34:50.419Z,13.3
2022-09-30T23:36:49.905Z,9.5
2022-09-30T23:38:49.885Z,11.7
2022-09-30T23:40:50.052Z,9.9
2022-09-30T23:42:49.966Z,9.9
2022-09-30T23:44:50.147Z,9.9
2022-09-30T23:46:49.683Z,11.7
2022-09-30T23:48:49.750Z,11.0
2022-09-30T23:50:49.906Z,12.3
2022-09-30T23:52:49.900Z,13.6
2022-09-30T23:54:50.136Z,13.6
2022-09-30T23:56:50.346Z,10.8
2022-09-30T23:58:50.379Z,11.5
